ITY1173 LIRF-LICA
Flight info
| Callsign | ITY1173 |
|---|---|
| Flight time | 0h 48m |
| Altitude | 37000 |
| Route | XIBRI5AXRIFFI9G/25 RIFFI DCT PNZ DCT VEXUV DCT EVINO DCT ARBUM |
| Aircraft | A319/M-SDE3FGHIRWY/LB1 |
Departure
| Time | 2026-05-09 10:34 |
|---|---|
| Airport | Rome–Fiumicino Leonardo da Vinci International Airport (LIRF) |
Arrival
| Time | 2026-05-09 11:23 |
|---|---|
| Airport | Lamezia Terme Sant'Eufemia International Airport (LICA) |
| Time | Latitude | Longitude | Altitude | Speed | Heading |
|---|---|---|---|---|---|
| 2026-05-09 09:57 | 41.79692 | 12.25619 | 15 ft | 0 kts | 295° |
| 2026-05-09 10:25 | 41.79691 | 12.25621 | 15 ft | 2 kts | 295° |
| 2026-05-09 10:25 | 41.79679 | 12.25651 | 18 ft | 4 kts | 311° |
| 2026-05-09 10:25 | 41.79659 | 12.25671 | 15 ft | 4 kts | 2° |
| 2026-05-09 10:25 | 41.79646 | 12.25667 | 15 ft | 1 kts | 25° |
| 2026-05-09 10:26 | 41.79645 | 12.25667 | 15 ft | 0 kts | 25° |
| 2026-05-09 10:28 | 41.79653 | 12.25672 | 15 ft | 3 kts | 25° |
| 2026-05-09 10:28 | 41.79698 | 12.25700 | 16 ft | 11 kts | 25° |
| 2026-05-09 10:28 | 41.79785 | 12.25754 | 15 ft | 15 kts | 25° |
| 2026-05-09 10:28 | 41.79879 | 12.25824 | 16 ft | 16 kts | 31° |
| 2026-05-09 10:29 | 41.79982 | 12.25890 | 15 ft | 17 kts | 24° |
| 2026-05-09 10:29 | 41.80091 | 12.25957 | 15 ft | 18 kts | 25° |
| 2026-05-09 10:29 | 41.80206 | 12.26027 | 15 ft | 18 kts | 25° |
| 2026-05-09 10:29 | 41.80324 | 12.26100 | 16 ft | 19 kts | 25° |
| 2026-05-09 10:30 | 41.80445 | 12.26171 | 15 ft | 20 kts | 18° |
| 2026-05-09 10:30 | 41.80541 | 12.26284 | 15 ft | 20 kts | 67° |
| 2026-05-09 10:30 | 41.80589 | 12.26458 | 17 ft | 20 kts | 70° |
| 2026-05-09 10:30 | 41.80639 | 12.26637 | 15 ft | 21 kts | 69° |
| 2026-05-09 10:31 | 41.80691 | 12.26821 | 17 ft | 21 kts | 70° |
| 2026-05-09 10:31 | 41.80744 | 12.27006 | 15 ft | 21 kts | 60° |
| 2026-05-09 10:31 | 41.80860 | 12.27018 | 15 ft | 11 kts | 339° |
| 2026-05-09 10:31 | 41.80877 | 12.27009 | 15 ft | 0 kts | 340° |
| 2026-05-09 10:32 | 41.80891 | 12.27002 | 15 ft | 6 kts | 340° |
| 2026-05-09 10:32 | 41.80953 | 12.26971 | 15 ft | 9 kts | 334° |
| 2026-05-09 10:33 | 41.80959 | 12.26925 | 13 ft | 0 kts | 249° |
| 2026-05-09 10:33 | 41.80894 | 12.26695 | 14 ft | 65 kts | 250° |
| 2026-05-09 10:34 | 41.80653 | 12.25820 | 17 ft | 133 kts | 250° |
| 2026-05-09 10:34 | 41.79867 | 12.22947 | 919 ft | 170 kts | 250° |
| 2026-05-09 10:34 | 41.79436 | 12.21477 | 1723 ft | 170 kts | 240° |
| 2026-05-09 10:35 | 41.78642 | 12.20247 | 2233 ft | 184 kts | 218° |
| 2026-05-09 10:35 | 41.77607 | 12.19106 | 2661 ft | 203 kts | 218° |
| 2026-05-09 10:35 | 41.76460 | 12.17842 | 3021 ft | 229 kts | 217° |
| 2026-05-09 10:35 | 41.74971 | 12.16883 | 3592 ft | 247 kts | 189° |
| 2026-05-09 10:36 | 41.73235 | 12.16994 | 4456 ft | 254 kts | 171° |
| 2026-05-09 10:36 | 41.71455 | 12.17220 | 5393 ft | 259 kts | 177° |
| 2026-05-09 10:36 | 41.69631 | 12.17281 | 6353 ft | 264 kts | 179° |
| 2026-05-09 10:36 | 41.67777 | 12.17295 | 7266 ft | 268 kts | 179° |
| 2026-05-09 10:37 | 41.65872 | 12.17313 | 8024 ft | 280 kts | 178° |
| 2026-05-09 10:37 | 41.63922 | 12.17356 | 8849 ft | 286 kts | 178° |
| 2026-05-09 10:37 | 41.61910 | 12.17422 | 9760 ft | 291 kts | 177° |
| 2026-05-09 10:37 | 41.59867 | 12.17505 | 10622 ft | 295 kts | 177° |
| 2026-05-09 10:38 | 41.57797 | 12.17599 | 11441 ft | 300 kts | 177° |
| 2026-05-09 10:38 | 41.55690 | 12.17617 | 12273 ft | 304 kts | 185° |
| 2026-05-09 10:38 | 41.53593 | 12.17186 | 13111 ft | 307 kts | 188° |
| 2026-05-09 10:38 | 41.51443 | 12.17215 | 13943 ft | 312 kts | 172° |
| 2026-05-09 10:39 | 41.49338 | 12.17981 | 14679 ft | 316 kts | 159° |
| 2026-05-09 10:39 | 41.48018 | 12.18833 | 15152 ft | 319 kts | 151° |
| 2026-05-09 10:39 | 41.45675 | 12.21270 | 16091 ft | 326 kts | 135° |
| 2026-05-09 10:39 | 41.44090 | 12.23469 | 16806 ft | 330 kts | 135° |
| 2026-05-09 10:40 | 41.43025 | 12.24940 | 17274 ft | 333 kts | 135° |
| 2026-05-09 10:40 | 41.41406 | 12.27176 | 17961 ft | 337 kts | 135° |
| 2026-05-09 10:40 | 41.39766 | 12.29437 | 18609 ft | 342 kts | 136° |
| 2026-05-09 10:40 | 41.38100 | 12.31726 | 19218 ft | 345 kts | 136° |
| 2026-05-09 10:41 | 41.36415 | 12.34038 | 19808 ft | 349 kts | 136° |
| 2026-05-09 10:41 | 41.34713 | 12.36376 | 20401 ft | 353 kts | 136° |
| 2026-05-09 10:41 | 41.32995 | 12.38737 | 20988 ft | 357 kts | 137° |
| 2026-05-09 10:41 | 41.31259 | 12.41127 | 21588 ft | 361 kts | 137° |
| 2026-05-09 10:42 | 41.29504 | 12.43535 | 22165 ft | 364 kts | 137° |
| 2026-05-09 10:42 | 41.27730 | 12.45966 | 22744 ft | 368 kts | 137° |
| 2026-05-09 10:42 | 41.25936 | 12.48423 | 23310 ft | 372 kts | 137° |
| 2026-05-09 10:42 | 41.24125 | 12.50900 | 23859 ft | 376 kts | 137° |
| 2026-05-09 10:43 | 41.22298 | 12.53402 | 24351 ft | 379 kts | 138° |
| 2026-05-09 10:43 | 41.20456 | 12.55923 | 24841 ft | 382 kts | 138° |
| 2026-05-09 10:43 | 41.18624 | 12.58432 | 25308 ft | 385 kts | 138° |
| 2026-05-09 10:43 | 41.16753 | 12.60994 | 25815 ft | 388 kts | 138° |
| 2026-05-09 10:44 | 41.14845 | 12.63608 | 26307 ft | 391 kts | 138° |
| 2026-05-09 10:44 | 41.12943 | 12.66211 | 26778 ft | 394 kts | 138° |
| 2026-05-09 10:44 | 41.11049 | 12.68794 | 27237 ft | 398 kts | 138° |
| 2026-05-09 10:44 | 41.09111 | 12.71429 | 27702 ft | 401 kts | 138° |
| 2026-05-09 10:45 | 41.07153 | 12.74085 | 28168 ft | 404 kts | 138° |
| 2026-05-09 10:46 | 40.99127 | 12.84957 | 29617 ft | 427 kts | 138° |
| 2026-05-09 10:46 | 40.97042 | 12.87781 | 29955 ft | 432 kts | 138° |
| 2026-05-09 10:46 | 40.94931 | 12.90635 | 30314 ft | 435 kts | 139° |
| 2026-05-09 10:46 | 40.92802 | 12.93506 | 30625 ft | 439 kts | 139° |
| 2026-05-09 10:47 | 40.90707 | 12.96484 | 30926 ft | 446 kts | 133° |
| 2026-05-09 10:47 | 40.88774 | 12.99724 | 31217 ft | 451 kts | 132° |
| 2026-05-09 10:47 | 40.86825 | 13.02998 | 31511 ft | 456 kts | 132° |
| 2026-05-09 10:47 | 40.84852 | 13.06301 | 31809 ft | 460 kts | 132° |
| 2026-05-09 10:48 | 40.82862 | 13.09622 | 32165 ft | 462 kts | 132° |
| 2026-05-09 10:48 | 40.80864 | 13.12953 | 32545 ft | 464 kts | 132° |
| 2026-05-09 10:48 | 40.78850 | 13.16305 | 32912 ft | 466 kts | 132° |
| 2026-05-09 10:48 | 40.76826 | 13.19665 | 33276 ft | 469 kts | 132° |
| 2026-05-09 10:49 | 40.74794 | 13.23037 | 33626 ft | 471 kts | 132° |
| 2026-05-09 10:49 | 40.72765 | 13.26398 | 34227 ft | 465 kts | 133° |
| 2026-05-09 10:49 | 40.70781 | 13.29740 | 34661 ft | 464 kts | 129° |
| 2026-05-09 10:49 | 40.69001 | 13.33315 | 34891 ft | 469 kts | 125° |
| 2026-05-09 10:50 | 40.67260 | 13.36966 | 35162 ft | 471 kts | 125° |
| 2026-05-09 10:50 | 40.65525 | 13.40621 | 35504 ft | 470 kts | 125° |
| 2026-05-09 10:50 | 40.63792 | 13.44271 | 35865 ft | 469 kts | 125° |
| 2026-05-09 10:50 | 40.62062 | 13.47908 | 36231 ft | 468 kts | 125° |
| 2026-05-09 10:51 | 40.60334 | 13.51532 | 36605 ft | 467 kts | 125° |
| 2026-05-09 10:51 | 40.58606 | 13.55139 | 36960 ft | 466 kts | 126° |
| 2026-05-09 10:51 | 40.56868 | 13.58754 | 37101 ft | 470 kts | 126° |
| 2026-05-09 10:52 | 40.53313 | 13.66121 | 37116 ft | 484 kts | 126° |
| 2026-05-09 10:52 | 40.49665 | 13.73690 | 37120 ft | 494 kts | 125° |
| 2026-05-09 10:53 | 40.45988 | 13.81334 | 37115 ft | 495 kts | 125° |
| 2026-05-09 10:53 | 40.42316 | 13.88926 | 37113 ft | 496 kts | 126° |
| 2026-05-09 10:54 | 40.38589 | 13.96606 | 37117 ft | 496 kts | 126° |
| 2026-05-09 10:54 | 40.34907 | 14.04175 | 37116 ft | 496 kts | 126° |
| 2026-05-09 10:55 | 40.31195 | 14.11789 | 37123 ft | 496 kts | 126° |
| 2026-05-09 10:55 | 40.27479 | 14.19398 | 37121 ft | 495 kts | 126° |
| 2026-05-09 10:56 | 40.23764 | 14.26988 | 37121 ft | 495 kts | 126° |
| 2026-05-09 10:56 | 40.20041 | 14.34564 | 37125 ft | 495 kts | 126° |
| 2026-05-09 10:57 | 40.16318 | 14.42132 | 37129 ft | 495 kts | 126° |
| 2026-05-09 10:57 | 40.12586 | 14.49685 | 37125 ft | 494 kts | 126° |
| 2026-05-09 10:58 | 40.08855 | 14.57227 | 37126 ft | 494 kts | 126° |
| 2026-05-09 10:58 | 40.05116 | 14.64768 | 37122 ft | 495 kts | 126° |
| 2026-05-09 10:59 | 40.01372 | 14.72293 | 37132 ft | 495 kts | 126° |
| 2026-05-09 10:59 | 39.97624 | 14.79814 | 37132 ft | 494 kts | 126° |
| 2026-05-09 11:00 | 39.93880 | 14.87325 | 37133 ft | 494 kts | 126° |
| 2026-05-09 11:00 | 39.92003 | 14.91079 | 36895 ft | 494 kts | 127° |
| 2026-05-09 11:00 | 39.90129 | 14.94816 | 36548 ft | 492 kts | 127° |
| 2026-05-09 11:00 | 39.88263 | 14.98542 | 35947 ft | 490 kts | 127° |
| 2026-05-09 11:01 | 39.86396 | 15.02257 | 35347 ft | 490 kts | 127° |
| 2026-05-09 11:01 | 39.84531 | 15.05961 | 34735 ft | 490 kts | 127° |
| 2026-05-09 11:01 | 39.82663 | 15.09670 | 34117 ft | 490 kts | 127° |
| 2026-05-09 11:01 | 39.80795 | 15.13380 | 33468 ft | 489 kts | 127° |
| 2026-05-09 11:02 | 39.78935 | 15.17071 | 32867 ft | 487 kts | 127° |
| 2026-05-09 11:02 | 39.77082 | 15.20741 | 32257 ft | 484 kts | 127° |
| 2026-05-09 11:02 | 39.75233 | 15.24391 | 31665 ft | 482 kts | 127° |
| 2026-05-09 11:02 | 39.73398 | 15.28015 | 31095 ft | 479 kts | 127° |
| 2026-05-09 11:03 | 39.71482 | 15.31454 | 30599 ft | 470 kts | 134° |
| 2026-05-09 11:03 | 39.69222 | 15.34475 | 30072 ft | 460 kts | 143° |
| 2026-05-09 11:03 | 39.66808 | 15.37161 | 29552 ft | 453 kts | 144° |
| 2026-05-09 11:03 | 39.64427 | 15.39807 | 29077 ft | 447 kts | 144° |
| 2026-05-09 11:04 | 39.62080 | 15.42419 | 28616 ft | 440 kts | 144° |
| 2026-05-09 11:04 | 39.59798 | 15.44957 | 28169 ft | 435 kts | 144° |
| 2026-05-09 11:04 | 39.57518 | 15.47498 | 27729 ft | 430 kts | 144° |
| 2026-05-09 11:04 | 39.55256 | 15.50011 | 27299 ft | 425 kts | 144° |
| 2026-05-09 11:05 | 39.53020 | 15.52491 | 26885 ft | 421 kts | 144° |
| 2026-05-09 11:05 | 39.50797 | 15.54953 | 26462 ft | 418 kts | 144° |
| 2026-05-09 11:05 | 39.48599 | 15.57390 | 26046 ft | 415 kts | 144° |
| 2026-05-09 11:05 | 39.46417 | 15.59809 | 25628 ft | 412 kts | 144° |
| 2026-05-09 11:06 | 39.44246 | 15.62215 | 25210 ft | 409 kts | 144° |
| 2026-05-09 11:06 | 39.42086 | 15.64601 | 24781 ft | 406 kts | 144° |
| 2026-05-09 11:06 | 39.39936 | 15.66969 | 24346 ft | 404 kts | 144° |
| 2026-05-09 11:06 | 39.37827 | 15.69289 | 23910 ft | 402 kts | 144° |
| 2026-05-09 11:07 | 39.35700 | 15.71629 | 23421 ft | 399 kts | 144° |
| 2026-05-09 11:07 | 39.33593 | 15.73947 | 22969 ft | 396 kts | 144° |
| 2026-05-09 11:07 | 39.31506 | 15.76239 | 22526 ft | 392 kts | 144° |
| 2026-05-09 11:07 | 39.29437 | 15.78510 | 22091 ft | 388 kts | 144° |
| 2026-05-09 11:08 | 39.27380 | 15.80767 | 21652 ft | 385 kts | 145° |
| 2026-05-09 11:08 | 39.25348 | 15.82996 | 21218 ft | 382 kts | 145° |
| 2026-05-09 11:08 | 39.23347 | 15.85188 | 20790 ft | 380 kts | 145° |
| 2026-05-09 11:08 | 39.21329 | 15.87395 | 20356 ft | 378 kts | 145° |
| 2026-05-09 11:09 | 39.19347 | 15.89612 | 19932 ft | 377 kts | 143° |
| 2026-05-09 11:09 | 39.17438 | 15.91936 | 19503 ft | 376 kts | 141° |
| 2026-05-09 11:09 | 39.15608 | 15.94295 | 19083 ft | 376 kts | 140° |
| 2026-05-09 11:09 | 39.13782 | 15.96702 | 18654 ft | 374 kts | 139° |
| 2026-05-09 11:10 | 39.11965 | 15.99098 | 18203 ft | 373 kts | 139° |
| 2026-05-09 11:10 | 39.10152 | 16.01470 | 17778 ft | 370 kts | 140° |
| 2026-05-09 11:10 | 39.08340 | 16.03812 | 17362 ft | 367 kts | 140° |
| 2026-05-09 11:10 | 39.06537 | 16.06122 | 16955 ft | 364 kts | 140° |
| 2026-05-09 11:11 | 39.04741 | 16.08413 | 16552 ft | 362 kts | 140° |
| 2026-05-09 11:11 | 39.02974 | 16.10660 | 16161 ft | 360 kts | 141° |
| 2026-05-09 11:11 | 39.01195 | 16.12918 | 15758 ft | 359 kts | 141° |
| 2026-05-09 11:11 | 38.99416 | 16.15176 | 15357 ft | 359 kts | 140° |
| 2026-05-09 11:12 | 38.97639 | 16.17431 | 14938 ft | 358 kts | 140° |
| 2026-05-09 11:12 | 38.95885 | 16.19652 | 14560 ft | 357 kts | 140° |
| 2026-05-09 11:12 | 38.94118 | 16.21890 | 14158 ft | 356 kts | 140° |
| 2026-05-09 11:12 | 38.92352 | 16.24130 | 13728 ft | 355 kts | 140° |
| 2026-05-09 11:13 | 38.90658 | 16.26448 | 13326 ft | 356 kts | 132° |
| 2026-05-09 11:13 | 38.89330 | 16.29136 | 12899 ft | 356 kts | 122° |
| 2026-05-09 11:13 | 38.88148 | 16.31910 | 12492 ft | 351 kts | 122° |
| 2026-05-09 11:13 | 38.86979 | 16.34637 | 12080 ft | 347 kts | 122° |
| 2026-05-09 11:14 | 38.85832 | 16.37300 | 11677 ft | 343 kts | 123° |
| 2026-05-09 11:14 | 38.84683 | 16.39958 | 11270 ft | 338 kts | 123° |
| 2026-05-09 11:14 | 38.83548 | 16.42585 | 10858 ft | 334 kts | 123° |
| 2026-05-09 11:14 | 38.82426 | 16.45185 | 10449 ft | 330 kts | 123° |
| 2026-05-09 11:15 | 38.81317 | 16.47748 | 10103 ft | 326 kts | 123° |
| 2026-05-09 11:15 | 38.80227 | 16.50268 | 9883 ft | 323 kts | 123° |
| 2026-05-09 11:15 | 38.79153 | 16.52773 | 9392 ft | 322 kts | 120° |
| 2026-05-09 11:15 | 38.78411 | 16.55477 | 8918 ft | 321 kts | 103° |
| 2026-05-09 11:16 | 38.78062 | 16.58295 | 8448 ft | 318 kts | 99° |
| 2026-05-09 11:16 | 38.78073 | 16.61048 | 8295 ft | 301 kts | 76° |
| 2026-05-09 11:16 | 38.78931 | 16.63408 | 7961 ft | 288 kts | 47° |
| 2026-05-09 11:16 | 38.80448 | 16.64980 | 7572 ft | 275 kts | 19° |
| 2026-05-09 11:17 | 38.82233 | 16.65490 | 7170 ft | 262 kts | 353° |
| 2026-05-09 11:17 | 38.83952 | 16.64967 | 6758 ft | 250 kts | 328° |
| 2026-05-09 11:17 | 38.85281 | 16.63619 | 6348 ft | 241 kts | 306° |
| 2026-05-09 11:17 | 38.86066 | 16.61691 | 5738 ft | 250 kts | 282° |
| 2026-05-09 11:18 | 38.86350 | 16.59497 | 5348 ft | 247 kts | 277° |
| 2026-05-09 11:18 | 38.86614 | 16.57331 | 5005 ft | 244 kts | 278° |
| 2026-05-09 11:18 | 38.86872 | 16.55198 | 4669 ft | 240 kts | 277° |
| 2026-05-09 11:18 | 38.87123 | 16.53099 | 4357 ft | 236 kts | 278° |
| 2026-05-09 11:19 | 38.87368 | 16.51054 | 4059 ft | 233 kts | 278° |
| 2026-05-09 11:19 | 38.87611 | 16.49012 | 3762 ft | 228 kts | 278° |
| 2026-05-09 11:19 | 38.87852 | 16.46989 | 3446 ft | 229 kts | 278° |
| 2026-05-09 11:19 | 38.88092 | 16.44976 | 3129 ft | 228 kts | 278° |
| 2026-05-09 11:20 | 38.88331 | 16.42964 | 2820 ft | 230 kts | 278° |
| 2026-05-09 11:20 | 38.88571 | 16.40942 | 2466 ft | 229 kts | 278° |
| 2026-05-09 11:20 | 38.88810 | 16.38921 | 2118 ft | 229 kts | 277° |
| 2026-05-09 11:20 | 38.89049 | 16.36901 | 1780 ft | 230 kts | 276° |
| 2026-05-09 11:21 | 38.89286 | 16.34896 | 1441 ft | 221 kts | 277° |
| 2026-05-09 11:21 | 38.89510 | 16.33003 | 1194 ft | 209 kts | 278° |
| 2026-05-09 11:21 | 38.89722 | 16.31193 | 964 ft | 199 kts | 278° |
| 2026-05-09 11:21 | 38.89922 | 16.29501 | 731 ft | 187 kts | 277° |
| 2026-05-09 11:22 | 38.90109 | 16.27913 | 533 ft | 170 kts | 279° |
| 2026-05-09 11:22 | 38.90274 | 16.26532 | 327 ft | 149 kts | 278° |
| 2026-05-09 11:22 | 38.90419 | 16.25289 | 179 ft | 129 kts | 279° |
| 2026-05-09 11:22 | 38.90530 | 16.24311 | 166 ft | 88 kts | 277° |
| 2026-05-09 11:23 | 38.90590 | 16.23760 | 167 ft | 33 kts | 286° |
| 2026-05-09 11:23 | 38.90684 | 16.23562 | 170 ft | 22 kts | 307° |
| 2026-05-09 11:23 | 38.90814 | 16.23497 | 167 ft | 23 kts | 34° |
| 2026-05-09 11:23 | 38.90827 | 16.23682 | 166 ft | 21 kts | 99° |
| 2026-05-09 11:24 | 38.90878 | 16.23819 | 166 ft | 18 kts | 46° |
| 2026-05-09 11:24 | 38.90959 | 16.23873 | 167 ft | 6 kts | 8° |
| 2026-05-09 11:24 | 38.90966 | 16.23874 | 167 ft | 0 kts | 8° |